Time;durP1;ratioP1;P1;durP2;ratioP2;P2;SDS_P1;SDS_P2;PMS_P1;PMS_P2;Temp;Humidity;BMP_temperature;BMP_pressure;BME280_temperature;BME280_humidity;BME280_pressure;Samples;Min_cycle;Max_cycle;Signal;HPM_P1;HPM_P2
2022/10/26 00:00:49;;;;;;;7.72;2.05;;;14.40;99.90;;;;;;5091617;28;20392;-80
2022/10/26 00:03:15;;;;;;;6.50;1.80;;;14.40;99.90;;;;;;5090024;28;20469;-80
2022/10/26 00:05:41;;;;;;;4.28;1.95;;;14.30;99.90;;;;;;5093076;28;20123;-82
2022/10/26 00:08:07;;;;;;;9.13;2.00;;;14.40;99.90;;;;;;5092630;28;20032;-81
2022/10/26 00:10:34;;;;;;;2.58;1.95;;;14.50;99.90;;;;;;5091809;28;20358;-82
2022/10/26 00:13:00;;;;;;;8.25;2.80;;;14.50;99.90;;;;;;5089644;28;20016;-82
2022/10/26 00:15:27;;;;;;;4.22;1.90;;;14.50;99.90;;;;;;5091160;28;20024;-79
2022/10/26 00:17:52;;;;;;;5.55;1.70;;;14.60;99.90;;;;;;5091886;28;20028;-80
2022/10/26 00:20:18;;;;;;;4.38;1.83;;;14.60;99.90;;;;;;5090834;28;20486;-78
2022/10/26 00:22:44;;;;;;;5.32;1.73;;;14.60;99.90;;;;;;5090858;28;20027;-79
2022/10/26 00:25:09;;;;;;;6.72;1.80;;;14.60;99.90;;;;;;5090565;28;20020;-78
2022/10/26 00:27:35;;;;;;;5.63;1.85;;;14.60;99.90;;;;;;5091022;28;20028;-82
2022/10/26 00:30:02;;;;;;;6.53;1.95;;;14.60;99.90;;;;;;5102079;28;20052;-84
2022/10/26 00:32:27;;;;;;;6.35;1.80;;;14.60;99.90;;;;;;5104039;28;20028;-83
2022/10/26 00:34:53;;;;;;;3.65;1.70;;;14.60;99.90;;;;;;5103138;28;20076;-84
2022/10/26 00:37:18;;;;;;;6.03;1.63;;;14.60;99.90;;;;;;5084420;28;20469;-83
2022/10/26 00:39:44;;;;;;;6.00;1.70;;;14.60;99.90;;;;;;5085315;28;20042;-84
2022/10/26 00:42:18;;;;;;;4.13;1.70;;;14.60;99.90;;;;;;5084679;28;20118;-85
2022/10/26 00:44:46;;;;;;;5.93;1.92;;;14.60;99.90;;;;;;5086379;28;20096;-85
2022/10/26 00:47:32;;;;;;;5.43;1.63;;;14.60;99.90;;;;;;5083587;28;20024;-84
2022/10/26 00:50:07;;;;;;;4.80;1.77;;;14.50;99.90;;;;;;5084238;28;20047;-84
2022/10/26 00:52:33;;;;;;;9.00;1.80;;;14.50;99.90;;;;;;5084011;28;20393;-84
2022/10/26 00:54:59;;;;;;;5.15;1.77;;;14.50;99.90;;;;;;5084075;28;20051;-84
2022/10/26 00:57:25;;;;;;;6.00;1.70;;;14.60;99.90;;;;;;5102784;28;20060;-88
2022/10/26 00:59:53;;;;;;;2.05;1.33;;;14.50;99.90;;;;;;5084420;28;20095;-84
2022/10/26 01:02:19;;;;;;;6.53;1.92;;;14.60;99.90;;;;;;5084470;28;20032;-85
2022/10/26 01:04:46;;;;;;;2.35;1.35;;;14.60;99.90;;;;;;5084002;28;20119;-85
2022/10/26 01:07:12;;;;;;;5.68;1.95;;;14.60;99.90;;;;;;5084555;28;20028;-85
2022/10/26 01:09:38;;;;;;;4.65;1.75;;;14.60;99.90;;;;;;5084777;28;20468;-86
2022/10/26 01:12:04;;;;;;;7.60;1.85;;;14.60;99.90;;;;;;5086448;28;20108;-84
2022/10/26 01:14:31;;;;;;;3.53;1.35;;;14.60;99.90;;;;;;5085233;28;20118;-85
2022/10/26 01:17:27;;;;;;;3.10;1.48;;;14.60;99.90;;;;;;5084382;28;20178;-84
2022/10/26 01:20:14;;;;;;;4.72;1.77;;;14.60;99.90;;;;;;5084287;28;20139;-84
2022/10/26 01:23:02;;;;;;;5.80;1.80;;;14.60;99.90;;;;;;5102029;28;20326;-85
2022/10/26 01:25:56;;;;;;;6.75;2.05;;;14.50;99.90;;;;;;5084987;28;20082;-85
2022/10/26 01:28:50;;;;;;;4.93;1.85;;;14.50;99.90;;;;;;5084394;28;20101;-85
2022/10/26 01:31:26;;;;;;;8.75;1.80;;;14.50;99.90;;;;;;5084007;28;20379;-85
2022/10/26 01:34:22;;;;;;;10.07;2.38;;;14.50;99.90;;;;;;5102500;28;20055;-84
2022/10/26 01:36:55;;;;;;;7.35;2.25;;;14.40;99.90;;;;;;5081947;28;20036;-86
2022/10/26 01:39:26;;;;;;;5.85;1.90;;;14.50;99.90;;;;;;5083942;28;20028;-84
2022/10/26 01:41:59;;;;;;;4.43;1.88;;;14.50;99.90;;;;;;5084243;28;20024;-85
2022/10/26 01:44:29;;;;;;;5.45;1.75;;;14.50;99.90;;;;;;5085827;28;20039;-84
2022/10/26 01:46:58;;;;;;;3.20;1.55;;;14.50;99.90;;;;;;5088111;28;20028;-84
2022/10/26 01:49:27;;;;;;;4.47;1.38;;;14.40;99.90;;;;;;5087543;28;20031;-85
2022/10/26 01:51:53;;;;;;;5.88;1.63;;;14.40;99.90;;;;;;5088815;28;20469;-84
2022/10/26 01:54:18;;;;;;;10.27;2.47;;;14.40;99.90;;;;;;5088568;28;20149;-84
2022/10/26 01:56:50;;;;;;;4.70;1.85;;;14.40;99.90;;;;;;5106312;28;20043;-84
2022/10/26 01:59:28;;;;;;;4.00;1.77;;;14.40;99.90;;;;;;5087257;28;20039;-85
2022/10/26 02:02:21;;;;;;;5.07;2.00;;;14.40;99.90;;;;;;5089232;28;20066;-84
2022/10/26 02:05:02;;;;;;;6.18;2.03;;;14.40;99.90;;;;;;5088163;28;20030;-84
2022/10/26 02:07:56;;;;;;;3.45;1.58;;;14.30;99.90;;;;;;5086938;28;20039;-84
2022/10/26 02:10:32;;;;;;;4.53;1.48;;;14.30;99.90;;;;;;5087722;28;20028;-84
2022/10/26 02:13:42;;;;;;;4.18;1.80;;;14.40;99.90;;;;;;5089680;28;20070;-83
2022/10/26 02:16:30;;;;;;;6.35;1.95;;;14.40;99.90;;;;;;5083565;28;20034;-83
2022/10/26 02:19:04;;;;;;;7.10;1.88;;;14.40;99.90;;;;;;5106085;28;20058;-84
2022/10/26 02:21:40;;;;;;;7.53;2.20;;;14.40;99.90;;;;;;5086950;28;20488;-84
2022/10/26 02:24:09;;;;;;;14.02;3.60;;;14.30;99.90;;;;;;5087983;28;20034;-84
2022/10/26 02:26:38;;;;;;;8.52;2.30;;;14.30;99.90;;;;;;5088096;28;20024;-85
2022/10/26 02:29:08;;;;;;;18.90;8.93;;;14.30;99.90;;;;;;5105658;28;20066;-84
2022/10/26 02:31:35;;;;;;;6.88;2.45;;;14.30;99.90;;;;;;5088001;28;20059;-84
2022/10/26 02:34:05;;;;;;;7.50;2.15;;;14.30;99.90;;;;;;5085868;28;20524;-84
2022/10/26 02:36:35;;;;;;;4.90;1.98;;;14.40;99.90;;;;;;5086187;28;20496;-84
2022/10/26 02:39:03;;;;;;;3.97;1.67;;;14.40;99.90;;;;;;5086726;28;20081;-84
2022/10/26 02:41:31;;;;;;;3.20;1.45;;;14.30;99.90;;;;;;5087867;28;20043;-85
2022/10/26 02:44:39;;;;;;;7.43;2.25;;;14.30;99.90;;;;;;5087604;28;20031;-84
2022/10/26 02:47:05;;;;;;;3.42;1.48;;;14.20;99.90;;;;;;5035083;28;20064;-84
2022/10/26 02:49:31;;;;;;;3.85;1.63;;;14.30;99.90;;;;;;5093150;28;20027;-84
2022/10/26 02:51:56;;;;;;;3.97;1.60;;;14.30;99.90;;;;;;5087723;28;20020;-84
2022/10/26 02:54:37;;;;;;;4.45;2.00;;;14.20;99.90;;;;;;5106892;28;20461;-84
2022/10/26 02:57:16;;;;;;;6.03;1.95;;;14.30;99.90;;;;;;5087340;28;20062;-85
2022/10/26 02:59:48;;;;;;;5.53;2.08;;;14.20;99.90;;;;;;5087449;28;20027;-84
2022/10/26 03:02:19;;;;;;;6.10;2.00;;;14.30;99.90;;;;;;5086454;28;20058;-85
2022/10/26 03:04:47;;;;;;;2.95;1.65;;;14.20;99.90;;;;;;5086126;28;20032;-85
2022/10/26 03:07:19;;;;;;;4.22;1.90;;;14.30;99.90;;;;;;5105025;28;20460;-84
2022/10/26 03:09:45;;;;;;;3.42;2.08;;;14.20;99.90;;;;;;5086861;28;20032;-85
2022/10/26 03:12:11;;;;;;;5.38;1.90;;;14.10;99.90;;;;;;5085453;28;20054;-85
2022/10/26 03:14:36;;;;;;;8.15;2.70;;;14.20;99.90;;;;;;5088053;28;20027;-85
2022/10/26 03:17:02;;;;;;;7.97;2.03;;;14.20;99.90;;;;;;5086895;28;20015;-87
2022/10/26 03:19:27;;;;;;;5.70;2.40;;;14.10;99.90;;;;;;5105505;28;20095;-84
2022/10/26 03:21:53;;;;;;;6.35;2.10;;;14.10;99.90;;;;;;5085732;28;20028;-85
2022/10/26 03:24:19;;;;;;;7.85;2.05;;;14.10;99.90;;;;;;5086016;28;20681;-85
2022/10/26 03:26:44;;;;;;;7.60;2.20;;;14.10;99.90;;;;;;5087706;28;20023;-86
2022/10/26 03:29:10;;;;;;;4.03;2.05;;;14.10;99.90;;;;;;5082479;28;20052;-85
2022/10/26 03:31:35;;;;;;;8.73;2.15;;;14.10;99.90;;;;;;5084637;28;20029;-85
2022/10/26 03:34:01;;;;;;;6.18;2.20;;;14.10;99.90;;;;;;5083288;28;20034;-85
2022/10/26 03:36:26;;;;;;;3.40;2.00;;;14.10;99.90;;;;;;5082624;28;20032;-86
2022/10/26 03:38:52;;;;;;;5.60;2.33;;;14.10;99.90;;;;;;5082033;28;20051;-86
2022/10/26 03:41:17;;;;;;;6.88;2.40;;;14.00;99.90;;;;;;5083108;28;20078;-85
2022/10/26 03:43:43;;;;;;;4.47;2.40;;;14.00;99.90;;;;;;5084558;28;20028;-86
2022/10/26 03:46:09;;;;;;;6.50;2.45;;;14.00;99.90;;;;;;5082341;28;20025;-86
2022/10/26 03:48:34;;;;;;;10.30;2.20;;;13.90;99.90;;;;;;5083381;28;20136;-86
2022/10/26 03:51:00;;;;;;;5.90;2.05;;;14.00;99.90;;;;;;5082665;28;20049;-85
2022/10/26 03:53:26;;;;;;;6.57;2.17;;;14.00;99.90;;;;;;5082720;28;20385;-85
2022/10/26 03:55:51;;;;;;;5.57;2.10;;;13.90;99.90;;;;;;5083660;28;20029;-85
2022/10/26 03:58:17;;;;;;;5.90;2.10;;;14.00;99.90;;;;;;5081980;28;20031;-84
2022/10/26 04:00:43;;;;;;;5.95;2.20;;;14.00;99.90;;;;;;5084164;28;20036;-83
2022/10/26 04:03:08;;;;;;;7.10;2.25;;;13.90;99.90;;;;;;5083873;28;20373;-83
2022/10/26 04:05:34;;;;;;;5.53;2.08;;;14.00;99.90;;;;;;5083432;28;20061;-83
2022/10/26 04:08:03;;;;;;;6.82;2.40;;;14.00;99.90;;;;;;5074887;28;20028;-84
2022/10/26 04:10:29;;;;;;;4.95;2.35;;;14.00;99.90;;;;;;5081762;28;20081;-83
2022/10/26 04:12:56;;;;;;;6.65;2.50;;;13.90;99.90;;;;;;5082448;28;20028;-84
2022/10/26 04:15:22;;;;;;;7.22;2.03;;;13.90;99.90;;;;;;5082602;28;20114;-83
2022/10/26 04:17:48;;;;;;;7.55;2.40;;;13.90;99.90;;;;;;5082379;28;20120;-84
2022/10/26 04:20:14;;;;;;;6.95;2.13;;;13.90;99.90;;;;;;5081644;28;20035;-83
2022/10/26 04:22:39;;;;;;;4.55;2.17;;;13.90;99.90;;;;;;5083357;28;20032;-84
2022/10/26 04:25:06;;;;;;;6.70;2.58;;;13.90;99.90;;;;;;5080776;28;20465;-85
2022/10/26 04:27:32;;;;;;;10.43;2.63;;;13.90;99.90;;;;;;5083526;28;20024;-84
2022/10/26 04:29:58;;;;;;;8.65;1.98;;;13.90;99.90;;;;;;5103007;28;20101;-84
2022/10/26 04:32:23;;;;;;;7.85;2.05;;;14.00;99.90;;;;;;5085759;28;20052;-83
2022/10/26 04:34:49;;;;;;;6.45;1.73;;;14.00;99.90;;;;;;5103409;28;20039;-84
2022/10/26 04:37:14;;;;;;;7.15;2.00;;;14.00;99.90;;;;;;5085893;28;20035;-84
2022/10/26 04:39:40;;;;;;;8.50;1.88;;;14.00;99.90;;;;;;5084938;28;20036;-84
2022/10/26 04:42:06;;;;;;;5.57;1.88;;;14.00;99.90;;;;;;5086576;28;20035;-84
2022/10/26 04:44:31;;;;;;;6.50;1.90;;;13.90;99.90;;;;;;5085665;28;20024;-84
2022/10/26 04:46:57;;;;;;;5.55;2.00;;;14.00;99.90;;;;;;5101046;28;20082;-88
2022/10/26 04:49:23;;;;;;;5.50;2.08;;;14.00;99.90;;;;;;5086026;28;20027;-86
2022/10/26 04:51:48;;;;;;;11.15;2.10;;;14.00;99.90;;;;;;5086018;28;20050;-87
2022/10/26 04:54:14;;;;;;;7.13;2.13;;;14.00;99.90;;;;;;5084628;28;20479;-87
2022/10/26 04:56:39;;;;;;;4.57;1.85;;;14.10;99.90;;;;;;5083973;28;20024;-87
2022/10/26 04:59:05;;;;;;;5.63;1.85;;;14.10;99.90;;;;;;5084220;28;20032;-86
2022/10/26 05:01:31;;;;;;;6.63;1.80;;;14.00;99.90;;;;;;5084109;28;20056;-86
2022/10/26 05:03:56;;;;;;;8.20;2.13;;;14.00;99.90;;;;;;5086480;28;20024;-86
2022/10/26 05:06:22;;;;;;;5.60;1.95;;;14.00;99.90;;;;;;5084612;28;20457;-85
2022/10/26 05:08:48;;;;;;;7.60;2.10;;;14.00;99.90;;;;;;5082856;28;20031;-87
2022/10/26 05:11:14;;;;;;;6.65;1.70;;;14.00;99.90;;;;;;5101229;28;20350;-87
2022/10/26 05:13:39;;;;;;;6.78;1.88;;;14.00;99.90;;;;;;5085339;28;20631;-87
2022/10/26 05:16:06;;;;;;;6.47;2.20;;;14.00;99.90;;;;;;5086343;28;20146;-86
2022/10/26 05:18:31;;;;;;;7.43;1.92;;;14.10;99.90;;;;;;5083991;28;20024;-86
2022/10/26 05:20:57;;;;;;;5.80;2.45;;;14.10;99.90;;;;;;5101486;28;20039;-87
2022/10/26 05:23:23;;;;;;;15.85;2.33;;;14.10;99.90;;;;;;5084576;28;20028;-86
2022/10/26 05:25:48;;;;;;;7.70;2.38;;;14.10;99.90;;;;;;5085428;28;20047;-87
2022/10/26 05:28:15;;;;;;;9.57;2.00;;;14.10;99.90;;;;;;5082678;28;20055;-86
2022/10/26 05:30:43;;;;;;;4.07;1.77;;;14.10;99.90;;;;;;5089950;28;20489;-87
2022/10/26 05:33:10;;;;;;;5.22;2.20;;;14.10;99.90;;;;;;5090514;28;20031;-86
2022/10/26 05:35:36;;;;;;;7.75;2.35;;;14.10;99.90;;;;;;5089889;28;20430;-86
2022/10/26 05:38:16;;;;;;;4.07;2.03;;;14.10;99.90;;;;;;5090228;28;20066;-86
2022/10/26 05:40:53;;;;;;;4.68;2.30;;;14.00;99.90;;;;;;5090570;28;20481;-87
2022/10/26 05:43:20;;;;;;;5.55;2.35;;;14.10;99.90;;;;;;5090582;28;20109;-87
2022/10/26 05:45:46;;;;;;;4.75;2.13;;;14.10;99.90;;;;;;5090732;28;20031;-86
2022/10/26 05:48:12;;;;;;;7.30;2.33;;;14.10;99.90;;;;;;5090438;28;20024;-87
2022/10/26 05:50:37;;;;;;;3.92;1.80;;;14.10;99.90;;;;;;5091431;28;20500;-87
2022/10/26 05:53:03;;;;;;;8.30;2.03;;;14.10;99.90;;;;;;5091344;28;20487;-84
2022/10/26 05:55:29;;;;;;;9.10;2.17;;;14.10;99.90;;;;;;5090912;28;20034;-85
2022/10/26 05:57:55;;;;;;;3.10;1.95;;;14.10;99.90;;;;;;5091285;28;20036;-84
2022/10/26 06:00:26;;;;;;;3.72;1.90;;;14.10;99.90;;;;;;5090463;28;20032;-84
2022/10/26 06:03:10;;;;;;;4.45;2.10;;;14.10;99.90;;;;;;5090414;28;20077;-85
2022/10/26 06:05:56;;;;;;;4.68;1.98;;;14.10;99.90;;;;;;5091123;28;20560;-84
2022/10/26 06:08:24;;;;;;;5.70;2.17;;;14.10;99.90;;;;;;5089909;28;20052;-84
2022/10/26 06:10:51;;;;;;;6.70;2.15;;;14.10;99.90;;;;;;5091846;28;20028;-84
2022/10/26 06:13:17;;;;;;;5.78;2.17;;;14.10;99.90;;;;;;5091905;28;20017;-85
2022/10/26 06:16:20;;;;;;;5.90;2.17;;;14.00;99.90;;;;;;5091409;28;20119;-84
2022/10/26 06:19:13;;;;;;;7.65;1.75;;;14.00;99.90;;;;;;5086126;28;20032;-85
2022/10/26 06:22:16;;;;;;;8.13;2.10;;;13.90;99.90;;;;;;5090611;28;20028;-85
2022/10/26 06:24:45;;;;;;;3.67;2.00;;;13.90;99.90;;;;;;5091047;28;20025;-84
2022/10/26 06:27:10;;;;;;;5.78;2.50;;;13.90;99.90;;;;;;5090086;28;20302;-84
2022/10/26 06:29:42;;;;;;;9.55;2.25;;;14.00;99.90;;;;;;5085922;28;20167;-84
2022/10/26 06:32:09;;;;;;;7.47;2.50;;;14.00;99.90;;;;;;5085902;28;20092;-84
2022/10/26 06:34:41;;;;;;;8.15;2.30;;;14.00;99.90;;;;;;5085305;28;20031;-84
2022/10/26 06:37:08;;;;;;;6.82;2.63;;;14.10;99.90;;;;;;5087049;28;20031;-84
2022/10/26 06:39:38;;;;;;;5.75;2.72;;;14.10;99.90;;;;;;5088177;28;20047;-84
2022/10/26 06:42:05;;;;;;;5.88;2.53;;;14.10;99.90;;;;;;5087507;28;20050;-85
2022/10/26 06:44:32;;;;;;;5.47;2.60;;;14.10;99.90;;;;;;5107086;28;20681;-83
2022/10/26 06:47:11;;;;;;;11.00;3.05;;;14.10;99.90;;;;;;5086557;28;20027;-82
2022/10/26 06:49:42;;;;;;;8.38;2.75;;;14.10;99.90;;;;;;5088147;28;20065;-83
2022/10/26 06:52:21;;;;;;;8.05;2.65;;;14.10;99.90;;;;;;5106677;28;20031;-82
2022/10/26 06:54:51;;;;;;;10.05;2.97;;;14.10;99.90;;;;;;5087964;28;20035;-83
2022/10/26 06:57:19;;;;;;;8.60;3.45;;;14.10;99.90;;;;;;5084722;28;20400;-83
2022/10/26 06:59:47;;;;;;;8.15;3.72;;;14.10;99.90;;;;;;5086836;28;20032;-84
2022/10/26 07:02:13;;;;;;;10.63;4.35;;;14.20;99.90;;;;;;5086583;28;20034;-85
2022/10/26 07:04:43;;;;;;;10.80;3.67;;;14.20;99.90;;;;;;5104945;28;20345;-85
2022/10/26 07:07:12;;;;;;;12.43;3.90;;;14.20;99.90;;;;;;5084757;28;20051;-86
2022/10/26 07:09:38;;;;;;;14.13;4.78;;;14.30;99.90;;;;;;5087415;28;20469;-85
2022/10/26 07:12:04;;;;;;;12.30;3.90;;;14.30;99.90;;;;;;5086606;28;20019;-86
2022/10/26 07:14:29;;;;;;;16.15;4.18;;;14.30;99.90;;;;;;5086833;28;20063;-87
2022/10/26 07:16:55;;;;;;;8.57;3.70;;;14.40;99.90;;;;;;5105525;28;20046;-86
2022/10/26 07:19:21;;;;;;;13.52;4.25;;;14.40;99.90;;;;;;5085882;28;20047;-85
2022/10/26 07:21:47;;;;;;;11.50;5.50;;;14.40;99.90;;;;;;5086007;28;20074;-85
2022/10/26 07:24:12;;;;;;;14.27;4.97;;;14.40;99.90;;;;;;5085468;28;20035;-86
2022/10/26 07:26:38;;;;;;;11.93;4.35;;;14.50;99.90;;;;;;5086204;28;20050;-87
2022/10/26 07:29:03;;;;;;;8.48;4.15;;;14.50;99.90;;;;;;5089560;28;20433;-86
2022/10/26 07:31:29;;;;;;;10.68;5.45;;;14.50;99.90;;;;;;5094664;28;20051;-86
2022/10/26 07:33:55;;;;;;;15.93;5.30;;;14.60;99.90;;;;;;5094949;28;20058;-85
2022/10/26 07:36:21;;;;;;;12.85;4.93;;;14.60;99.90;;;;;;5093240;28;20035;-85
2022/10/26 07:38:49;;;;;;;12.70;4.93;;;14.60;99.90;;;;;;5094946;28;20118;-84
2022/10/26 07:41:15;;;;;;;11.73;5.63;;;14.70;99.90;;;;;;5104198;28;20468;-86
2022/10/26 07:43:40;;;;;;;11.45;5.05;;;14.70;99.90;;;;;;5092809;28;20469;-86
2022/10/26 07:46:06;;;;;;;10.77;4.68;;;14.80;99.90;;;;;;5094642;28;20027;-86
2022/10/26 07:48:32;;;;;;;13.52;5.35;;;14.80;99.90;;;;;;5094679;28;20016;-85
2022/10/26 07:51:00;;;;;;;11.10;5.13;;;14.80;99.90;;;;;;5094202;28;20030;-85
2022/10/26 07:53:25;;;;;;;13.52;4.57;;;14.90;99.90;;;;;;5093870;28;20057;-84
2022/10/26 07:55:55;;;;;;;9.18;4.10;;;14.90;99.90;;;;;;5095462;28;20065;-84
2022/10/26 07:58:24;;;;;;;7.25;3.70;;;14.90;99.90;;;;;;5093558;28;20032;-85
2022/10/26 08:00:53;;;;;;;6.40;3.47;;;15.00;99.90;;;;;;5093682;28;20048;-87
2022/10/26 08:03:19;;;;;;;9.13;5.38;;;15.00;99.90;;;;;;5093246;28;20023;-86
2022/10/26 08:05:49;;;;;;;11.57;4.35;;;15.10;99.90;;;;;;5104509;28;20032;-87
2022/10/26 08:08:16;;;;;;;8.13;4.05;;;15.10;99.90;;;;;;5094058;28;20036;-85
2022/10/26 08:10:43;;;;;;;5.90;2.95;;;15.10;99.90;;;;;;5103559;28;20457;-84
2022/10/26 08:13:09;;;;;;;12.27;3.28;;;15.20;99.90;;;;;;5094507;28;20383;-84
2022/10/26 08:15:34;;;;;;;7.13;2.83;;;15.20;99.90;;;;;;5093360;28;20027;-86
2022/10/26 08:18:00;;;;;;;5.53;2.88;;;15.30;99.90;;;;;;5104669;28;20329;-86
2022/10/26 08:20:25;;;;;;;7.63;2.67;;;15.30;99.90;;;;;;5103535;28;20035;-84
2022/10/26 08:22:51;;;;;;;7.63;2.30;;;15.30;99.90;;;;;;5094307;28;20028;-84
2022/10/26 08:25:17;;;;;;;10.43;2.38;;;15.40;99.90;;;;;;5099459;28;20545;-86
2022/10/26 08:27:43;;;;;;;5.97;2.42;;;15.40;99.90;;;;;;5094005;28;20456;-87
2022/10/26 08:30:09;;;;;;;7.55;2.17;;;15.40;99.90;;;;;;5085051;28;20108;-89
2022/10/26 08:32:34;;;;;;;8.65;2.80;;;15.40;99.90;;;;;;5085515;28;20239;-82
2022/10/26 08:35:00;;;;;;;5.85;1.90;;;15.30;99.90;;;;;;5084992;28;20028;-84
2022/10/26 08:37:26;;;;;;;6.50;2.30;;;15.40;99.90;;;;;;5084689;28;20063;-85
2022/10/26 08:39:52;;;;;;;3.55;1.90;;;15.40;99.90;;;;;;5104950;28;20059;-82
2022/10/26 08:42:25;;;;;;;7.28;2.40;;;15.50;99.90;;;;;;5085567;28;20039;-82
2022/10/26 08:44:59;;;;;;;5.43;1.83;;;15.50;99.90;;;;;;5103366;28;20066;-83
2022/10/26 08:47:31;;;;;;;6.05;2.10;;;15.60;99.90;;;;;;5102006;28;20034;-80
2022/10/26 08:50:12;;;;;;;10.10;2.42;;;15.60;99.90;;;;;;5084328;28;20035;-80
2022/10/26 08:52:53;;;;;;;6.45;2.22;;;15.70;99.90;;;;;;5103196;28;20111;-81
2022/10/26 08:55:24;;;;;;;9.15;2.65;;;15.70;99.90;;;;;;5084983;28;20532;-90
2022/10/26 08:57:52;;;;;;;7.03;2.40;;;15.70;99.90;;;;;;5085551;28;20053;-91
2022/10/26 09:00:23;;;;;;;8.45;2.03;;;15.70;99.90;;;;;;5083452;28;20088;-91
2022/10/26 09:02:53;;;;;;;6.72;1.98;;;15.80;99.90;;;;;;5084885;28;20052;-80
2022/10/26 09:05:29;;;;;;;5.13;2.10;;;15.80;99.90;;;;;;5083332;28;20032;-79
2022/10/26 09:08:03;;;;;;;11.70;2.10;;;15.90;99.90;;;;;;5103250;28;20027;-80
2022/10/26 09:10:57;;;;;;;4.65;1.90;;;16.00;99.90;;;;;;5083839;28;20057;-80
2022/10/26 09:13:46;;;;;;;5.28;1.88;;;16.10;99.90;;;;;;5083169;28;20062;-79
2022/10/26 09:16:27;;;;;;;7.05;2.00;;;16.30;99.90;;;;;;5082583;28;20396;-79
2022/10/26 09:19:14;;;;;;;7.18;1.60;;;16.30;99.90;;;;;;5084329;28;20118;-79
2022/10/26 09:21:49;;;;;;;5.15;1.65;;;16.40;99.90;;;;;;5083263;28;20042;-78
2022/10/26 09:24:26;;;;;;;4.78;1.90;;;16.40;99.90;;;;;;5102011;28;20027;-79
2022/10/26 09:26:54;;;;;;;5.25;1.33;;;16.50;99.90;;;;;;5098992;28;20035;-81
2022/10/26 09:29:25;;;;;;;6.53;1.98;;;16.50;99.90;;;;;;5100599;28;20043;-82
2022/10/26 09:31:53;;;;;;;7.38;1.48;;;16.60;99.90;;;;;;5102956;28;20035;-82
2022/10/26 09:34:43;;;;;;;7.53;1.85;;;16.70;99.90;;;;;;5082178;28;20138;-82
2022/10/26 09:37:23;;;;;;;6.40;1.77;;;16.80;99.90;;;;;;5084300;28;20024;-80
2022/10/26 09:39:57;;;;;;;2.80;1.33;;;16.80;99.90;;;;;;5083114;28;20088;-80
2022/10/26 09:42:47;;;;;;;3.40;1.30;;;17.00;99.90;;;;;;5101117;28;20085;-81
2022/10/26 09:45:23;;;;;;;4.65;1.38;;;17.10;99.90;;;;;;5083486;28;20054;-79
2022/10/26 09:47:52;;;;;;;5.85;1.58;;;17.20;99.90;;;;;;5084929;28;20022;-80
2022/10/26 09:50:29;;;;;;;6.13;1.45;;;17.30;99.90;;;;;;5101745;28;20028;-81
2022/10/26 09:52:55;;;;;;;10.18;1.92;;;17.40;99.90;;;;;;5103676;28;20026;-85
2022/10/26 09:55:21;;;;;;;8.95;2.33;;;17.50;99.90;;;;;;5084539;28;20020;-83
2022/10/26 09:57:51;;;;;;;5.18;1.42;;;17.70;99.90;;;;;;5085312;28;20019;-80
2022/10/26 10:00:18;;;;;;;3.78;1.58;;;17.80;99.90;;;;;;5100542;28;20044;-80
2022/10/26 10:02:54;;;;;;;4.20;1.30;;;18.00;99.90;;;;;;5083988;28;20504;-83
2022/10/26 10:05:29;;;;;;;8.05;1.50;;;18.20;99.90;;;;;;5084272;28;20069;-81
2022/10/26 10:08:16;;;;;;;7.80;1.92;;;18.20;99.90;;;;;;5106399;28;20039;-82
2022/10/26 10:11:07;;;;;;;5.28;1.90;;;18.20;99.90;;;;;;5087287;28;20113;-81
2022/10/26 10:13:36;;;;;;;4.20;1.40;;;18.30;99.90;;;;;;5085966;28;20023;-81
2022/10/26 10:16:20;;;;;;;9.00;1.73;;;18.30;99.90;;;;;;5086276;28;20035;-83
2022/10/26 10:18:58;;;;;;;3.58;1.35;;;18.20;99.90;;;;;;5107010;28;20040;-80
2022/10/26 10:21:38;;;;;;;5.18;1.35;;;18.20;99.90;;;;;;5086285;28;20024;-81
2022/10/26 10:24:31;;;;;;;2.80;1.33;;;18.30;99.90;;;;;;5087786;28;20543;-80
2022/10/26 10:27:02;;;;;;;4.53;1.48;;;18.40;99.90;;;;;;5085676;28;20059;-84
2022/10/26 10:29:32;;;;;;;8.25;1.77;;;18.50;99.90;;;;;;5085999;28;20051;-81
2022/10/26 10:32:00;;;;;;;2.38;1.23;;;18.50;99.90;;;;;;5086558;28;20361;-82
2022/10/26 10:34:26;;;;;;;5.47;1.50;;;18.70;99.90;;;;;;5084887;28;20028;-81
2022/10/26 10:36:52;;;;;;;5.47;1.23;;;18.80;99.90;;;;;;5086748;28;20110;-82
2022/10/26 10:39:44;;;;;;;4.22;1.45;;;18.80;99.90;;;;;;5086233;28;20024;-82
2022/10/26 10:42:26;;;;;;;11.52;1.85;;;18.90;99.90;;;;;;5083647;28;20553;-83
2022/10/26 10:44:55;;;;;;;;;;;18.90;99.90;;;;;;5086900;28;20027;-81
2022/10/26 10:47:24;;;;;;;4.40;1.30;;;18.90;99.90;;;;;;5104346;28;19951;-83
2022/10/26 10:50:00;;;;;;;8.93;1.42;;;19.00;99.90;;;;;;5086830;28;20054;-83
2022/10/26 10:52:31;;;;;;;5.43;1.50;;;19.00;99.90;;;;;;5103964;28;20079;-80
2022/10/26 10:55:09;;;;;;;4.97;1.20;;;19.10;99.90;;;;;;5088174;28;20023;-83
2022/10/26 10:58:02;;;;;;;6.18;1.65;;;19.10;99.90;;;;;;5087385;28;20457;-82
2022/10/26 11:00:28;;;;;;;6.85;1.52;;;19.20;99.90;;;;;;5074898;28;20047;-85
2022/10/26 11:03:18;;;;;;;5.68;1.48;;;19.30;99.90;;;;;;5107389;28;20460;-83
2022/10/26 11:06:10;;;;;;;7.75;1.65;;;19.40;99.90;;;;;;5087731;28;20081;-81
2022/10/26 11:08:51;;;;;;;5.88;1.30;;;19.50;99.90;;;;;;5087057;28;20031;-84
2022/10/26 11:11:22;;;;;;;4.63;1.10;;;19.50;99.90;;;;;;5086697;28;20040;-81
2022/10/26 11:14:19;;;;;;;4.90;1.30;;;19.60;99.90;;;;;;5086254;28;20077;-86
2022/10/26 11:17:22;;;;;;;8.07;1.40;;;19.70;99.90;;;;;;5084447;28;20036;-85
2022/10/26 11:20:02;;;;;;;;;;;19.70;99.90;;;;;;5099487;28;20059;-86
2022/10/26 11:22:57;;;;;;;3.03;1.08;;;19.90;99.90;;;;;;5085135;28;19918;-85
2022/10/26 11:25:52;;;;;;;3.85;1.27;;;20.00;99.90;;;;;;5085314;28;20019;-88
2022/10/26 11:28:38;;;;;;;6.47;1.77;;;19.90;99.90;;;;;;5084585;28;20048;-88
2022/10/26 11:31:09;;;;;;;6.07;1.50;;;20.00;99.90;;;;;;5104974;28;20035;-82
2022/10/26 11:33:42;;;;;;;6.22;1.52;;;20.10;99.90;;;;;;5086086;28;20464;-82
2022/10/26 11:36:13;;;;;;;2.58;1.10;;;20.20;99.90;;;;;;5085686;28;20032;-80
2022/10/26 11:38:42;;;;;;;7.72;1.60;;;20.20;99.90;;;;;;5085738;28;20092;-81
2022/10/26 11:41:12;;;;;;;5.60;1.63;;;20.20;99.90;;;;;;5104507;28;20032;-81
2022/10/26 11:43:48;;;;;;;5.57;1.50;;;20.20;99.90;;;;;;5084233;28;20553;-78
2022/10/26 11:46:13;;;;;;;5.90;1.40;;;20.30;99.90;;;;;;5103901;28;20051;-84
2022/10/26 11:48:52;;;;;;;9.00;1.50;;;20.40;99.90;;;;;;5085378;28;20472;-84
2022/10/26 11:51:41;;;;;;;4.63;1.13;;;20.40;99.90;;;;;;5086099;28;20042;-83
2022/10/26 11:54:18;;;;;;;5.55;1.30;;;20.50;99.90;;;;;;5078674;28;20496;-82
2022/10/26 11:56:50;;;;;;;5.65;1.45;;;20.60;99.90;;;;;;5104002;28;20028;-84
2022/10/26 11:59:20;;;;;;;8.80;1.65;;;20.50;99.90;;;;;;5104679;28;20035;-81
2022/10/26 12:01:49;;;;;;;6.78;1.25;;;20.50;99.90;;;;;;5085820;28;20028;-85
2022/10/26 12:04:17;;;;;;;5.68;1.65;;;20.50;99.90;;;;;;5086436;28;20066;-85
2022/10/26 12:06:44;;;;;;;2.80;1.00;;;20.70;99.90;;;;;;5104141;28;20538;-84
2022/10/26 12:09:20;;;;;;;4.90;1.08;;;21.00;99.90;;;;;;5085201;28;20075;-85
2022/10/26 12:11:57;;;;;;;7.97;1.50;;;21.20;99.90;;;;;;5103965;28;20090;-83
2022/10/26 12:14:32;;;;;;;6.10;1.60;;;21.30;99.90;;;;;;5082811;28;20063;-86
2022/10/26 12:17:31;;;;;;;2.30;1.00;;;21.50;99.90;;;;;;5085000;28;20032;-86
2022/10/26 12:20:08;;;;;;;5.85;1.38;;;21.70;99.90;;;;;;5084841;28;20097;-82
2022/10/26 12:22:38;;;;;;;6.68;1.50;;;22.00;99.90;;;;;;5085053;28;20032;-85
2022/10/26 12:25:20;;;;;;;6.82;1.20;;;22.10;99.90;;;;;;5084144;28;20024;-84
2022/10/26 12:27:45;;;;;;;5.43;1.15;;;22.40;99.90;;;;;;5083549;28;20028;-84
2022/10/26 12:30:17;;;;;;;4.38;1.13;;;22.60;99.90;;;;;;5085324;28;20054;-82
2022/10/26 12:32:42;;;;;;;6.32;1.50;;;23.10;99.90;;;;;;5084862;28;20472;-86
2022/10/26 12:35:28;;;;;;;6.45;1.10;;;23.40;99.90;;;;;;5084687;28;20059;-86
2022/10/26 12:37:54;;;;;;;3.75;0.98;;;24.00;99.90;;;;;;5084506;28;20032;-84
2022/10/26 12:40:32;;;;;;;34.88;21.25;;;24.30;99.90;;;;;;5083207;28;20062;-85
2022/10/26 12:43:13;;;;;;;7.15;3.40;;;24.40;99.60;;;;;;5085065;28;20445;-81
2022/10/26 12:45:39;;;;;;;10.17;2.10;;;24.80;98.50;;;;;;5084763;28;20454;-78
2022/10/26 12:48:21;;;;;;;5.35;1.33;;;25.20;98.00;;;;;;5083984;28;20265;-80
2022/10/26 12:50:46;;;;;;;;;;;25.50;97.00;;;;;;5084636;28;20090;-79
2022/10/26 12:53:18;;;;;;;6.68;1.13;;;25.90;95.60;;;;;;5104238;28;19904;-80
2022/10/26 12:55:55;;;;;;;6.15;1.10;;;26.30;94.90;;;;;;5084334;28;20024;-79
2022/10/26 12:58:48;;;;;;;2.45;1.17;;;26.70;93.00;;;;;;5103903;28;20055;-77
2022/10/26 13:01:27;;;;;;;5.38;1.10;;;27.20;92.00;;;;;;5085718;28;20023;-79
2022/10/26 13:04:01;;;;;;;4.40;0.90;;;27.60;90.00;;;;;;5084713;28;20036;-84
2022/10/26 13:07:11;;;;;;;3.03;1.05;;;27.70;88.80;;;;;;5084052;28;20035;-83
2022/10/26 13:09:37;;;;;;;3.17;1.10;;;28.10;86.50;;;;;;5083877;28;20031;-85